Galveston, TX (77554)

8:10 AM CDT on September 22, 2014 (GMT -0500)
Pirate's Cove | Change Station
CLOSE
Current Station
Personal Weather Station
Location: Galveston, TX
Elevation: 5 ft
Nearby Weather Stations

Elev 5 ft 29.22 °N, 94.95 °W | Updated 13 minutes ago

Clear
Clear
78.7 °F
Feels Like 82 °F
N
0.0
Wind Variable Wind from North
Gusts 3.0 mph

Today
High -- | Low -- °F
--% Chance of Precip.
Yesterday
High -- | Low -- °F
Precip. -- in
7:08 AM 7:16 PM
Waning Crescent, 3% visible
Pressure 30.06 in
Visibility 10.0 miles
Clouds Clear
Heat Index 82 °F
Dew Point 76 °F
Humidity 91%
Rainfall 0.00 in
Snow Depth Not available.
UV 0.0 out of 12
Pollen 9.50 out of 12
Ozone Good
PM2.5 Moderate
Flu Activity Not available.
METAR KGLS 221252Z 35003KT 10SM CLR 27/25 A3006 RMK AO2 SLP178 T02670250

More Conditions Fewer Conditions

Pressure 30.06 in
Visibility 10.0 miles
Clouds Clear
Heat Index 82 °F
Dew Point 76 °F
Humidity 91%
Rainfall 0.00 in
Snow Depth Not available.
UV 0.0 out of 12
Pollen 9.50 out of 12
Ozone Good
PM2.5 Moderate
Flu Activity Not available.
METAR KGLS 221252Z 35003KT 10SM CLR 27/25 A3006 RMK AO2 SLP178 T02670250

More Conditions Fewer Conditions

10-Day Weather Forecast

Almanac

Astronomy

Sep. 22, 2014 Rise Set
Actual Time 7:08 AM CDT 7:16 PM CDT
Civil Twilight 6:44 AM CDT 7:39 PM CDT
Nautical Twilight 6:16 AM CDT 8:07 PM CDT
Astronomical Twilight 5:49 AM CDT 8:35 PM CDT
Moon 5:42 AM CDT 6:21 PM CDT
Length of Visible Light 12h 55m
Length of Day
12h 08m
Tomorrow will be 1m 44s shorter.
Waning Crescent, 3% of the Moon is Illuminated
Today
Waning Crescent
Sep 24
New
Oct 1
First Quarter
Oct 8
Full
Oct 15
Last Quarter

Today's Extremes

State Highs State Lows

Community

WunderPhotos

Upload Photos

1,755,429 photos uploaded!

Nearby

Air Quality

  Air Quality AQ Index Pollutant
Yesterday Unhealthy for Sensitive Groups
OZONE
Yesterday Moderate
PM2.5
Current Moderate
PM2.5
Current Good
OZONE
Monday Unhealthy for Sensitive Groups
OZONE
Monday Good
PM10
Tuesday Moderate
OZONE
Tuesday Good
PM10

Snow Depth

Station Depth Elevation
No new snow has been reported.

Earthquake Activity

City Distance Mag. Time & Date
No recent earthquake activity has been reported nearby.
Minimum magnitude displayed is 2.5.

Coastal Water Temperatures

Place Temperature
Eagle Point, TX 82.9 °F
USCG Freeport, TX 82.9 °F
Galveston Pier TX 82.9 °F
Galveston Bay (North Jetty), TX 82.9 °F
Rollover Pass, TX 81.0 °F

Nearby Weather Stations